sensor_id;sensor_type;location;lat;lon;timestamp;temperature;humidity
40960;DHT22;27842;52.272;8.052;2023-07-29T00:01:49;21.40;99.90
40960;DHT22;27842;52.272;8.052;2023-07-29T00:04:16;21.40;99.90
40960;DHT22;27842;52.272;8.052;2023-07-29T00:06:41;21.40;99.90
40960;DHT22;27842;52.272;8.052;2023-07-29T00:09:07;21.30;99.90
40960;DHT22;27842;52.272;8.052;2023-07-29T00:11:32;21.30;99.90
40960;DHT22;27842;52.272;8.052;2023-07-29T00:13:59;21.30;99.90
40960;DHT22;27842;52.272;8.052;2023-07-29T00:16:25;21.30;99.90
40960;DHT22;27842;52.272;8.052;2023-07-29T00:18:51;21.30;99.90
40960;DHT22;27842;52.272;8.052;2023-07-29T00:21:16;21.30;99.90
40960;DHT22;27842;52.272;8.052;2023-07-29T00:23:42;21.20;99.90
40960;DHT22;27842;52.272;8.052;2023-07-29T00:26:07;21.30;99.90
40960;DHT22;27842;52.272;8.052;2023-07-29T00:28:33;21.20;99.90
40960;DHT22;27842;52.272;8.052;2023-07-29T00:30:58;21.30;99.90
40960;DHT22;27842;52.272;8.052;2023-07-29T00:33:24;21.30;99.90
40960;DHT22;27842;52.272;8.052;2023-07-29T00:35:49;21.20;99.90
40960;DHT22;27842;52.272;8.052;2023-07-29T00:38:15;21.30;99.90
40960;DHT22;27842;52.272;8.052;2023-07-29T00:40:40;21.20;99.90
40960;DHT22;27842;52.272;8.052;2023-07-29T00:43:06;21.30;99.90
40960;DHT22;27842;52.272;8.052;2023-07-29T00:45:31;21.30;99.90
40960;DHT22;27842;52.272;8.052;2023-07-29T00:47:58;21.30;99.90
40960;DHT22;27842;52.272;8.052;2023-07-29T00:50:23;21.30;99.90
40960;DHT22;27842;52.272;8.052;2023-07-29T00:52:49;21.30;99.90
40960;DHT22;27842;52.272;8.052;2023-07-29T00:55:15;21.30;99.90
40960;DHT22;27842;52.272;8.052;2023-07-29T00:57:41;21.30;99.90
40960;DHT22;27842;52.272;8.052;2023-07-29T01:00:07;21.30;99.90
40960;DHT22;27842;52.272;8.052;2023-07-29T01:02:34;21.30;99.90
40960;DHT22;27842;52.272;8.052;2023-07-29T01:05:00;21.30;99.90
40960;DHT22;27842;52.272;8.052;2023-07-29T01:15:14;21.20;99.90
40960;DHT22;27842;52.272;8.052;2023-07-29T01:17:48;21.20;99.90
40960;DHT22;27842;52.272;8.052;2023-07-29T01:20:15;21.20;99.90
40960;DHT22;27842;52.272;8.052;2023-07-29T01:22:41;21.20;99.90
40960;DHT22;27842;52.272;8.052;2023-07-29T01:25:06;21.20;99.90
40960;DHT22;27842;52.272;8.052;2023-07-29T01:27:32;21.20;99.90
40960;DHT22;27842;52.272;8.052;2023-07-29T01:29:58;21.20;99.90
40960;DHT22;27842;52.272;8.052;2023-07-29T01:32:38;21.20;99.90
40960;DHT22;27842;52.272;8.052;2023-07-29T01:37:32;21.10;99.90
40960;DHT22;27842;52.272;8.052;2023-07-29T01:39:58;21.10;99.90
40960;DHT22;27842;52.272;8.052;2023-07-29T01:42:24;21.10;99.90
40960;DHT22;27842;52.272;8.052;2023-07-29T01:44:50;21.10;99.90
40960;DHT22;27842;52.272;8.052;2023-07-29T01:47:16;21.10;99.90
40960;DHT22;27842;52.272;8.052;2023-07-29T01:49:41;21.00;99.90
40960;DHT22;27842;52.272;8.052;2023-07-29T01:52:07;21.00;99.90
40960;DHT22;27842;52.272;8.052;2023-07-29T01:54:32;21.00;99.90
40960;DHT22;27842;52.272;8.052;2023-07-29T01:56:58;21.00;99.90
40960;DHT22;27842;52.272;8.052;2023-07-29T01:59:23;20.90;99.90
40960;DHT22;27842;52.272;8.052;2023-07-29T02:01:49;20.90;99.90
40960;DHT22;27842;52.272;8.052;2023-07-29T02:04:14;20.90;99.90
40960;DHT22;27842;52.272;8.052;2023-07-29T02:06:40;20.90;99.90
40960;DHT22;27842;52.272;8.052;2023-07-29T02:09:05;20.90;99.90
40960;DHT22;27842;52.272;8.052;2023-07-29T02:11:31;20.80;99.90
40960;DHT22;27842;52.272;8.052;2023-07-29T02:13:56;20.90;99.90
40960;DHT22;27842;52.272;8.052;2023-07-29T02:16:22;20.80;99.90
40960;DHT22;27842;52.272;8.052;2023-07-29T02:18:48;20.80;99.90
40960;DHT22;27842;52.272;8.052;2023-07-29T02:21:14;20.80;99.90
40960;DHT22;27842;52.272;8.052;2023-07-29T02:23:40;20.80;99.90
40960;DHT22;27842;52.272;8.052;2023-07-29T02:26:05;20.80;99.90
40960;DHT22;27842;52.272;8.052;2023-07-29T02:28:31;20.80;99.90
40960;DHT22;27842;52.272;8.052;2023-07-29T02:31:14;20.70;99.90
40960;DHT22;27842;52.272;8.052;2023-07-29T02:33:41;20.70;99.90
40960;DHT22;27842;52.272;8.052;2023-07-29T02:36:06;20.70;99.90
40960;DHT22;27842;52.272;8.052;2023-07-29T02:38:32;20.70;99.90
40960;DHT22;27842;52.272;8.052;2023-07-29T02:40:57;20.70;99.90
40960;DHT22;27842;52.272;8.052;2023-07-29T02:43:23;20.70;99.90
40960;DHT22;27842;52.272;8.052;2023-07-29T02:45:48;20.70;99.90
40960;DHT22;27842;52.272;8.052;2023-07-29T02:48:14;20.70;99.90
40960;DHT22;27842;52.272;8.052;2023-07-29T02:50:39;20.70;99.90
40960;DHT22;27842;52.272;8.052;2023-07-29T02:53:05;20.70;99.90
40960;DHT22;27842;52.272;8.052;2023-07-29T02:55:30;20.70;99.90
40960;DHT22;27842;52.272;8.052;2023-07-29T02:57:56;20.70;99.90
40960;DHT22;27842;52.272;8.052;2023-07-29T03:00:21;20.70;99.90
40960;DHT22;27842;52.272;8.052;2023-07-29T03:02:47;20.70;99.90
40960;DHT22;27842;52.272;8.052;2023-07-29T03:05:12;20.70;99.90
40960;DHT22;27842;52.272;8.052;2023-07-29T03:07:38;20.70;99.90
40960;DHT22;27842;52.272;8.052;2023-07-29T03:10:03;20.60;99.90
40960;DHT22;27842;52.272;8.052;2023-07-29T03:12:29;20.60;99.90
40960;DHT22;27842;52.272;8.052;2023-07-29T03:14:54;20.70;99.90
40960;DHT22;27842;52.272;8.052;2023-07-29T03:17:21;20.70;99.90
40960;DHT22;27842;52.272;8.052;2023-07-29T03:19:46;20.70;99.90
40960;DHT22;27842;52.272;8.052;2023-07-29T03:22:12;20.70;99.90
40960;DHT22;27842;52.272;8.052;2023-07-29T03:24:37;20.70;99.90
40960;DHT22;27842;52.272;8.052;2023-07-29T03:27:03;20.70;99.90
40960;DHT22;27842;52.272;8.052;2023-07-29T03:29:28;20.70;99.90
40960;DHT22;27842;52.272;8.052;2023-07-29T03:31:54;20.70;99.90
40960;DHT22;27842;52.272;8.052;2023-07-29T03:34:20;20.70;99.90
40960;DHT22;27842;52.272;8.052;2023-07-29T03:36:45;20.70;99.90
40960;DHT22;27842;52.272;8.052;2023-07-29T03:39:13;20.80;99.90
40960;DHT22;27842;52.272;8.052;2023-07-29T03:41:39;20.70;99.90
40960;DHT22;27842;52.272;8.052;2023-07-29T03:44:04;20.70;99.90
40960;DHT22;27842;52.272;8.052;2023-07-29T03:46:30;20.80;99.90
40960;DHT22;27842;52.272;8.052;2023-07-29T03:48:56;20.70;99.90
40960;DHT22;27842;52.272;8.052;2023-07-29T03:51:22;20.80;99.90
40960;DHT22;27842;52.272;8.052;2023-07-29T03:53:48;20.70;99.90
40960;DHT22;27842;52.272;8.052;2023-07-29T03:56:13;20.70;99.90
40960;DHT22;27842;52.272;8.052;2023-07-29T03:58:39;20.70;99.90
40960;DHT22;27842;52.272;8.052;2023-07-29T04:01:04;20.80;99.90
40960;DHT22;27842;52.272;8.052;2023-07-29T04:03:30;20.80;99.90
40960;DHT22;27842;52.272;8.052;2023-07-29T04:05:55;20.70;99.90
40960;DHT22;27842;52.272;8.052;2023-07-29T04:08:21;20.80;99.90
40960;DHT22;27842;52.272;8.052;2023-07-29T04:10:46;20.80;99.90
40960;DHT22;27842;52.272;8.052;2023-07-29T04:13:13;20.80;99.90
40960;DHT22;27842;52.272;8.052;2023-07-29T04:15:38;20.70;99.90
40960;DHT22;27842;52.272;8.052;2023-07-29T04:18:04;20.80;99.90
40960;DHT22;27842;52.272;8.052;2023-07-29T04:20:29;20.80;99.90
40960;DHT22;27842;52.272;8.052;2023-07-29T04:22:54;20.80;99.90
40960;DHT22;27842;52.272;8.052;2023-07-29T04:25:20;20.80;99.90
40960;DHT22;27842;52.272;8.052;2023-07-29T04:27:45;20.80;99.90
40960;DHT22;27842;52.272;8.052;2023-07-29T04:30:11;20.80;99.90
40960;DHT22;27842;52.272;8.052;2023-07-29T04:32:36;20.80;99.90
40960;DHT22;27842;52.272;8.052;2023-07-29T04:35:02;20.80;99.90
40960;DHT22;27842;52.272;8.052;2023-07-29T04:37:27;20.80;99.90
40960;DHT22;27842;52.272;8.052;2023-07-29T04:39:53;20.80;99.90
40960;DHT22;27842;52.272;8.052;2023-07-29T04:42:18;20.80;99.90
40960;DHT22;27842;52.272;8.052;2023-07-29T04:44:44;20.80;99.90
40960;DHT22;27842;52.272;8.052;2023-07-29T04:47:09;20.80;99.90
40960;DHT22;27842;52.272;8.052;2023-07-29T04:49:35;20.80;99.90
40960;DHT22;27842;52.272;8.052;2023-07-29T04:52:00;20.80;99.90
40960;DHT22;27842;52.272;8.052;2023-07-29T04:54:26;20.80;99.90
40960;DHT22;27842;52.272;8.052;2023-07-29T04:56:51;20.80;99.90
40960;DHT22;27842;52.272;8.052;2023-07-29T04:59:17;20.80;99.90
40960;DHT22;27842;52.272;8.052;2023-07-29T05:01:42;20.80;99.90
40960;DHT22;27842;52.272;8.052;2023-07-29T05:04:08;20.80;99.90
40960;DHT22;27842;52.272;8.052;2023-07-29T05:06:34;20.80;99.90
40960;DHT22;27842;52.272;8.052;2023-07-29T05:09:11;20.80;99.90
40960;DHT22;27842;52.272;8.052;2023-07-29T05:11:37;20.80;99.90
40960;DHT22;27842;52.272;8.052;2023-07-29T05:14:02;20.80;99.90
40960;DHT22;27842;52.272;8.052;2023-07-29T05:16:30;20.80;99.90
40960;DHT22;27842;52.272;8.052;2023-07-29T05:18:55;20.80;99.90
40960;DHT22;27842;52.272;8.052;2023-07-29T05:21:20;20.80;99.90
40960;DHT22;27842;52.272;8.052;2023-07-29T05:23:46;20.80;99.90
40960;DHT22;27842;52.272;8.052;2023-07-29T05:26:11;20.80;99.90
40960;DHT22;27842;52.272;8.052;2023-07-29T05:28:37;20.80;99.90
40960;DHT22;27842;52.272;8.052;2023-07-29T05:31:02;20.80;99.90
40960;DHT22;27842;52.272;8.052;2023-07-29T05:33:28;20.80;99.90
40960;DHT22;27842;52.272;8.052;2023-07-29T05:35:54;20.90;99.90
40960;DHT22;27842;52.272;8.052;2023-07-29T05:38:19;20.90;99.90
40960;DHT22;27842;52.272;8.052;2023-07-29T05:40:45;20.90;99.90
40960;DHT22;27842;52.272;8.052;2023-07-29T05:43:10;20.90;99.90
40960;DHT22;27842;52.272;8.052;2023-07-29T05:45:36;20.90;99.90
40960;DHT22;27842;52.272;8.052;2023-07-29T05:48:01;20.90;99.90
40960;DHT22;27842;52.272;8.052;2023-07-29T05:50:27;20.90;99.90
40960;DHT22;27842;52.272;8.052;2023-07-29T05:52:52;20.90;99.90
40960;DHT22;27842;52.272;8.052;2023-07-29T05:55:18;20.90;99.90
40960;DHT22;27842;52.272;8.052;2023-07-29T05:57:43;20.90;99.90
40960;DHT22;27842;52.272;8.052;2023-07-29T06:00:09;20.90;99.90
40960;DHT22;27842;52.272;8.052;2023-07-29T06:02:34;20.90;99.90
40960;DHT22;27842;52.272;8.052;2023-07-29T06:05:00;20.90;99.90
40960;DHT22;27842;52.272;8.052;2023-07-29T06:07:28;20.90;99.90
40960;DHT22;27842;52.272;8.052;2023-07-29T06:09:55;20.90;99.90
40960;DHT22;27842;52.272;8.052;2023-07-29T06:12:21;20.90;99.90
40960;DHT22;27842;52.272;8.052;2023-07-29T06:14:46;20.90;99.90
40960;DHT22;27842;52.272;8.052;2023-07-29T06:17:12;20.90;99.90
40960;DHT22;27842;52.272;8.052;2023-07-29T06:19:38;20.80;99.90
40960;DHT22;27842;52.272;8.052;2023-07-29T06:22:03;20.90;99.90
40960;DHT22;27842;52.272;8.052;2023-07-29T06:24:30;20.90;99.90
40960;DHT22;27842;52.272;8.052;2023-07-29T06:26:56;20.90;99.90
40960;DHT22;27842;52.272;8.052;2023-07-29T06:29:21;20.90;99.90
40960;DHT22;27842;52.272;8.052;2023-07-29T06:31:47;21.00;99.90
40960;DHT22;27842;52.272;8.052;2023-07-29T06:34:12;21.00;99.90
40960;DHT22;27842;52.272;8.052;2023-07-29T06:36:37;20.90;99.90
40960;DHT22;27842;52.272;8.052;2023-07-29T06:39:03;21.00;99.90
40960;DHT22;27842;52.272;8.052;2023-07-29T06:41:28;21.00;99.90
40960;DHT22;27842;52.272;8.052;2023-07-29T06:43:54;21.00;99.90
40960;DHT22;27842;52.272;8.052;2023-07-29T06:46:19;21.00;99.90
40960;DHT22;27842;52.272;8.052;2023-07-29T06:48:45;21.00;99.90
40960;DHT22;27842;52.272;8.052;2023-07-29T06:51:10;21.00;99.90
40960;DHT22;27842;52.272;8.052;2023-07-29T06:53:36;21.00;99.90
40960;DHT22;27842;52.272;8.052;2023-07-29T06:56:01;21.00;99.90
40960;DHT22;27842;52.272;8.052;2023-07-29T06:58:27;21.00;99.90
40960;DHT22;27842;52.272;8.052;2023-07-29T07:00:53;21.00;99.90
40960;DHT22;27842;52.272;8.052;2023-07-29T07:03:18;21.00;99.90
40960;DHT22;27842;52.272;8.052;2023-07-29T07:05:44;21.00;99.90
40960;DHT22;27842;52.272;8.052;2023-07-29T07:08:09;21.00;99.90
40960;DHT22;27842;52.272;8.052;2023-07-29T07:10:34;21.10;99.90
40960;DHT22;27842;52.272;8.052;2023-07-29T07:13:00;21.10;99.90
40960;DHT22;27842;52.272;8.052;2023-07-29T07:15:25;21.10;99.90
40960;DHT22;27842;52.272;8.052;2023-07-29T07:17:51;21.10;99.90
40960;DHT22;27842;52.272;8.052;2023-07-29T07:20:17;21.10;99.90
40960;DHT22;27842;52.272;8.052;2023-07-29T07:22:42;21.10;99.90
40960;DHT22;27842;52.272;8.052;2023-07-29T07:25:08;21.10;99.90
40960;DHT22;27842;52.272;8.052;2023-07-29T07:27:33;21.20;99.90
40960;DHT22;27842;52.272;8.052;2023-07-29T07:29:59;21.20;99.90
40960;DHT22;27842;52.272;8.052;2023-07-29T07:32:24;21.20;99.90
40960;DHT22;27842;52.272;8.052;2023-07-29T07:34:49;21.20;99.90
40960;DHT22;27842;52.272;8.052;2023-07-29T07:37:15;21.20;99.90
40960;DHT22;27842;52.272;8.052;2023-07-29T07:39:41;21.20;99.90
40960;DHT22;27842;52.272;8.052;2023-07-29T07:42:06;21.00;99.90
40960;DHT22;27842;52.272;8.052;2023-07-29T07:44:32;21.00;99.90
40960;DHT22;27842;52.272;8.052;2023-07-29T07:46:57;20.90;99.90
40960;DHT22;27842;52.272;8.052;2023-07-29T07:49:23;20.80;99.90
40960;DHT22;27842;52.272;8.052;2023-07-29T07:51:48;20.80;99.90
40960;DHT22;27842;52.272;8.052;2023-07-29T07:54:14;20.80;99.90
40960;DHT22;27842;52.272;8.052;2023-07-29T07:56:39;20.70;99.90
40960;DHT22;27842;52.272;8.052;2023-07-29T07:59:05;20.70;99.90
40960;DHT22;27842;52.272;8.052;2023-07-29T08:01:37;20.60;99.90
40960;DHT22;27842;52.272;8.052;2023-07-29T08:04:03;20.60;99.90
40960;DHT22;27842;52.272;8.052;2023-07-29T08:06:28;20.70;99.90
40960;DHT22;27842;52.272;8.052;2023-07-29T08:08:54;20.70;99.90
40960;DHT22;27842;52.272;8.052;2023-07-29T08:11:20;20.70;99.90
40960;DHT22;27842;52.272;8.052;2023-07-29T08:13:46;20.70;99.90
40960;DHT22;27842;52.272;8.052;2023-07-29T08:16:11;20.70;99.90
40960;DHT22;27842;52.272;8.052;2023-07-29T08:18:37;20.60;99.90
40960;DHT22;27842;52.272;8.052;2023-07-29T08:21:02;20.60;99.90
40960;DHT22;27842;52.272;8.052;2023-07-29T08:23:29;20.60;99.90
40960;DHT22;27842;52.272;8.052;2023-07-29T08:25:55;20.60;99.90
40960;DHT22;27842;52.272;8.052;2023-07-29T08:28:22;20.60;99.90
40960;DHT22;27842;52.272;8.052;2023-07-29T08:30:47;20.60;99.90
40960;DHT22;27842;52.272;8.052;2023-07-29T08:33:13;20.50;99.90
40960;DHT22;27842;52.272;8.052;2023-07-29T08:35:38;20.50;99.90
40960;DHT22;27842;52.272;8.052;2023-07-29T08:38:04;20.50;99.90
40960;DHT22;27842;52.272;8.052;2023-07-29T08:40:29;20.50;99.90
40960;DHT22;27842;52.272;8.052;2023-07-29T08:42:55;20.50;99.90
40960;DHT22;27842;52.272;8.052;2023-07-29T08:45:22;20.40;99.90
40960;DHT22;27842;52.272;8.052;2023-07-29T08:47:48;20.40;99.90
40960;DHT22;27842;52.272;8.052;2023-07-29T08:50:15;20.40;99.90
40960;DHT22;27842;52.272;8.052;2023-07-29T08:52:41;20.40;99.90
40960;DHT22;27842;52.272;8.052;2023-07-29T08:55:07;20.40;99.90
40960;DHT22;27842;52.272;8.052;2023-07-29T08:57:33;20.50;99.90
40960;DHT22;27842;52.272;8.052;2023-07-29T09:00:00;20.50;99.90
40960;DHT22;27842;52.272;8.052;2023-07-29T09:02:26;20.50;99.90
40960;DHT22;27842;52.272;8.052;2023-07-29T09:04:51;20.60;99.90
40960;DHT22;27842;52.272;8.052;2023-07-29T09:07:17;20.60;99.90
40960;DHT22;27842;52.272;8.052;2023-07-29T09:09:42;20.70;99.90
40960;DHT22;27842;52.272;8.052;2023-07-29T09:12:08;20.70;99.90
40960;DHT22;27842;52.272;8.052;2023-07-29T09:14:33;20.80;99.90
40960;DHT22;27842;52.272;8.052;2023-07-29T09:16:59;20.90;99.90
40960;DHT22;27842;52.272;8.052;2023-07-29T09:19:25;21.00;99.90
40960;DHT22;27842;52.272;8.052;2023-07-29T09:21:52;21.10;99.90
40960;DHT22;27842;52.272;8.052;2023-07-29T09:24:17;21.10;99.90
40960;DHT22;27842;52.272;8.052;2023-07-29T09:26:50;21.20;99.90
40960;DHT22;27842;52.272;8.052;2023-07-29T09:29:16;21.30;99.90
40960;DHT22;27842;52.272;8.052;2023-07-29T09:31:46;21.50;99.90
40960;DHT22;27842;52.272;8.052;2023-07-29T09:34:12;21.70;99.90
40960;DHT22;27842;52.272;8.052;2023-07-29T09:36:40;21.80;99.90
40960;DHT22;27842;52.272;8.052;2023-07-29T09:39:10;21.90;99.60
40960;DHT22;27842;52.272;8.052;2023-07-29T09:41:35;22.10;99.90
40960;DHT22;27842;52.272;8.052;2023-07-29T09:44:02;22.20;99.90
40960;DHT22;27842;52.272;8.052;2023-07-29T09:46:34;22.30;99.30
40960;DHT22;27842;52.272;8.052;2023-07-29T09:49:01;22.40;99.00
40960;DHT22;27842;52.272;8.052;2023-07-29T09:51:27;22.50;99.10
40960;DHT22;27842;52.272;8.052;2023-07-29T09:53:53;22.60;98.00
40960;DHT22;27842;52.272;8.052;2023-07-29T09:56:18;22.70;98.80
40960;DHT22;27842;52.272;8.052;2023-07-29T09:58:48;22.80;97.70
40960;DHT22;27842;52.272;8.052;2023-07-29T10:01:15;23.00;98.00
40960;DHT22;27842;52.272;8.052;2023-07-29T10:03:40;23.00;98.20
40960;DHT22;27842;52.272;8.052;2023-07-29T10:06:06;23.10;97.40
40960;DHT22;27842;52.272;8.052;2023-07-29T10:08:32;23.10;96.00
40960;DHT22;27842;52.272;8.052;2023-07-29T10:11:01;23.10;97.40
40960;DHT22;27842;52.272;8.052;2023-07-29T10:13:26;23.10;97.70
40960;DHT22;27842;52.272;8.052;2023-07-29T10:15:53;23.10;97.50
40960;DHT22;27842;52.272;8.052;2023-07-29T10:18:19;23.20;97.50
40960;DHT22;27842;52.272;8.052;2023-07-29T10:20:45;23.30;97.00
40960;DHT22;27842;52.272;8.052;2023-07-29T10:23:11;23.30;96.40
40960;DHT22;27842;52.272;8.052;2023-07-29T10:25:38;23.30;94.90
40960;DHT22;27842;52.272;8.052;2023-07-29T10:28:05;23.30;97.00
40960;DHT22;27842;52.272;8.052;2023-07-29T10:30:31;23.30;95.40
40960;DHT22;27842;52.272;8.052;2023-07-29T10:33:01;23.20;95.50
40960;DHT22;27842;52.272;8.052;2023-07-29T10:35:27;23.10;95.70
40960;DHT22;27842;52.272;8.052;2023-07-29T10:37:53;23.00;95.50
40960;DHT22;27842;52.272;8.052;2023-07-29T10:40:19;23.00;96.70
40960;DHT22;27842;52.272;8.052;2023-07-29T10:42:59;23.00;96.90
40960;DHT22;27842;52.272;8.052;2023-07-29T10:45:24;23.00;96.50
40960;DHT22;27842;52.272;8.052;2023-07-29T10:47:50;23.00;95.80
40960;DHT22;27842;52.272;8.052;2023-07-29T10:50:19;23.00;96.80
40960;DHT22;27842;52.272;8.052;2023-07-29T10:52:48;23.00;96.70
40960;DHT22;27842;52.272;8.052;2023-07-29T10:55:27;23.00;96.50
40960;DHT22;27842;52.272;8.052;2023-07-29T10:58:12;23.00;95.30
40960;DHT22;27842;52.272;8.052;2023-07-29T11:00:40;23.00;96.50
40960;DHT22;27842;52.272;8.052;2023-07-29T11:03:06;23.00;95.00
40960;DHT22;27842;52.272;8.052;2023-07-29T11:08:30;23.10;93.60
40960;DHT22;27842;52.272;8.052;2023-07-29T11:11:01;23.20;96.50
40960;DHT22;27842;52.272;8.052;2023-07-29T11:13:27;23.30;95.60
40960;DHT22;27842;52.272;8.052;2023-07-29T11:15:53;23.40;94.70
40960;DHT22;27842;52.272;8.052;2023-07-29T11:18:20;23.60;95.60
40960;DHT22;27842;52.272;8.052;2023-07-29T11:20:46;23.70;92.10
40960;DHT22;27842;52.272;8.052;2023-07-29T11:23:11;23.80;94.10
40960;DHT22;27842;52.272;8.052;2023-07-29T11:25:37;23.80;95.10
40960;DHT22;27842;52.272;8.052;2023-07-29T11:28:03;23.80;94.50
40960;DHT22;27842;52.272;8.052;2023-07-29T11:30:29;23.90;94.40
40960;DHT22;27842;52.272;8.052;2023-07-29T11:32:56;24.00;93.40
40960;DHT22;27842;52.272;8.052;2023-07-29T11:35:22;24.10;94.20
40960;DHT22;27842;52.272;8.052;2023-07-29T11:37:48;24.10;93.40
40960;DHT22;27842;52.272;8.052;2023-07-29T11:40:15;24.10;92.90
40960;DHT22;27842;52.272;8.052;2023-07-29T11:42:40;24.20;94.40
40960;DHT22;27842;52.272;8.052;2023-07-29T11:45:06;24.30;93.20
40960;DHT22;27842;52.272;8.052;2023-07-29T11:47:32;24.40;91.70
40960;DHT22;27842;52.272;8.052;2023-07-29T11:50:01;24.50;93.40
40960;DHT22;27842;52.272;8.052;2023-07-29T11:52:27;24.50;90.70
40960;DHT22;27842;52.272;8.052;2023-07-29T11:54:52;24.60;91.40
40960;DHT22;27842;52.272;8.052;2023-07-29T11:57:18;24.60;93.60
40960;DHT22;27842;52.272;8.052;2023-07-29T11:59:44;24.50;93.20
40960;DHT22;27842;52.272;8.052;2023-07-29T12:02:13;24.50;93.40
40960;DHT22;27842;52.272;8.052;2023-07-29T12:04:40;24.50;91.90
40960;DHT22;27842;52.272;8.052;2023-07-29T12:07:06;24.50;91.00
40960;DHT22;27842;52.272;8.052;2023-07-29T12:09:31;24.40;92.10
40960;DHT22;27842;52.272;8.052;2023-07-29T12:11:57;24.40;93.20
40960;DHT22;27842;52.272;8.052;2023-07-29T12:14:25;24.30;93.60
40960;DHT22;27842;52.272;8.052;2023-07-29T12:16:51;24.20;93.60
40960;DHT22;27842;52.272;8.052;2023-07-29T12:19:17;24.20;92.80
40960;DHT22;27842;52.272;8.052;2023-07-29T12:21:43;24.20;92.30
40960;DHT22;27842;52.272;8.052;2023-07-29T12:24:09;24.20;92.40
40960;DHT22;27842;52.272;8.052;2023-07-29T12:26:37;24.20;92.20
40960;DHT22;27842;52.272;8.052;2023-07-29T12:29:13;24.10;93.40
40960;DHT22;27842;52.272;8.052;2023-07-29T12:31:39;24.10;93.30
40960;DHT22;27842;52.272;8.052;2023-07-29T12:34:04;24.20;93.10
40960;DHT22;27842;52.272;8.052;2023-07-29T12:36:43;24.30;93.70
40960;DHT22;27842;52.272;8.052;2023-07-29T12:39:16;24.40;93.10
40960;DHT22;27842;52.272;8.052;2023-07-29T12:41:41;24.60;92.70
40960;DHT22;27842;52.272;8.052;2023-07-29T12:44:06;24.70;92.40
40960;DHT22;27842;52.272;8.052;2023-07-29T12:46:32;24.70;91.60
40960;DHT22;27842;52.272;8.052;2023-07-29T12:48:57;24.70;92.70
40960;DHT22;27842;52.272;8.052;2023-07-29T12:51:23;24.70;92.70
40960;DHT22;27842;52.272;8.052;2023-07-29T12:53:48;24.80;91.80
40960;DHT22;27842;52.272;8.052;2023-07-29T12:56:14;25.00;91.50
40960;DHT22;27842;52.272;8.052;2023-07-29T12:58:39;25.20;92.60
40960;DHT22;27842;52.272;8.052;2023-07-29T13:01:05;25.20;89.10
40960;DHT22;27842;52.272;8.052;2023-07-29T13:03:30;25.40;92.00
40960;DHT22;27842;52.272;8.052;2023-07-29T13:05:56;25.50;92.50
40960;DHT22;27842;52.272;8.052;2023-07-29T13:08:21;25.60;91.70
40960;DHT22;27842;52.272;8.052;2023-07-29T13:10:48;25.70;90.10
40960;DHT22;27842;52.272;8.052;2023-07-29T13:13:13;25.70;90.70
40960;DHT22;27842;52.272;8.052;2023-07-29T13:15:39;25.70;91.20
40960;DHT22;27842;52.272;8.052;2023-07-29T13:18:04;25.70;90.60
40960;DHT22;27842;52.272;8.052;2023-07-29T13:20:30;25.60;91.50
40960;DHT22;27842;52.272;8.052;2023-07-29T13:22:55;25.60;90.00
40960;DHT22;27842;52.272;8.052;2023-07-29T13:25:21;25.50;88.50
40960;DHT22;27842;52.272;8.052;2023-07-29T13:27:46;25.50;88.50
40960;DHT22;27842;52.272;8.052;2023-07-29T13:30:12;25.40;91.30
40960;DHT22;27842;52.272;8.052;2023-07-29T13:32:37;25.30;91.30
40960;DHT22;27842;52.272;8.052;2023-07-29T13:35:03;25.20;91.30
40960;DHT22;27842;52.272;8.052;2023-07-29T13:37:29;25.00;90.40
40960;DHT22;27842;52.272;8.052;2023-07-29T13:39:54;24.90;91.70
40960;DHT22;27842;52.272;8.052;2023-07-29T13:42:19;24.80;92.30
40960;DHT22;27842;52.272;8.052;2023-07-29T13:44:45;24.70;92.50
40960;DHT22;27842;52.272;8.052;2023-07-29T13:47:10;24.60;92.60
40960;DHT22;27842;52.272;8.052;2023-07-29T13:49:36;24.60;93.10
40960;DHT22;27842;52.272;8.052;2023-07-29T13:52:01;24.60;93.20
40960;DHT22;27842;52.272;8.052;2023-07-29T13:54:27;24.50;93.30
40960;DHT22;27842;52.272;8.052;2023-07-29T13:56:54;24.40;93.50
40960;DHT22;27842;52.272;8.052;2023-07-29T13:59:19;24.30;93.90
40960;DHT22;27842;52.272;8.052;2023-07-29T14:01:45;24.30;93.70
40960;DHT22;27842;52.272;8.052;2023-07-29T14:04:10;24.20;93.60
40960;DHT22;27842;52.272;8.052;2023-07-29T14:06:35;24.20;93.50
40960;DHT22;27842;52.272;8.052;2023-07-29T14:09:01;24.20;93.90
40960;DHT22;27842;52.272;8.052;2023-07-29T14:11:27;24.10;93.30
40960;DHT22;27842;52.272;8.052;2023-07-29T14:13:52;24.00;92.20
40960;DHT22;27842;52.272;8.052;2023-07-29T14:16:18;24.00;93.20
40960;DHT22;27842;52.272;8.052;2023-07-29T14:18:43;24.00;93.20
40960;DHT22;27842;52.272;8.052;2023-07-29T14:21:09;23.90;93.50
40960;DHT22;27842;52.272;8.052;2023-07-29T14:23:34;23.80;93.60
40960;DHT22;27842;52.272;8.052;2023-07-29T14:26:00;23.80;93.70
40960;DHT22;27842;52.272;8.052;2023-07-29T14:28:25;23.80;93.80
40960;DHT22;27842;52.272;8.052;2023-07-29T14:30:51;23.70;93.80
40960;DHT22;27842;52.272;8.052;2023-07-29T14:33:16;23.70;93.70
40960;DHT22;27842;52.272;8.052;2023-07-29T14:35:42;23.70;93.80
40960;DHT22;27842;52.272;8.052;2023-07-29T14:38:07;23.60;93.90
40960;DHT22;27842;52.272;8.052;2023-07-29T14:40:33;23.60;93.90
40960;DHT22;27842;52.272;8.052;2023-07-29T14:42:58;23.50;93.30
40960;DHT22;27842;52.272;8.052;2023-07-29T14:45:24;23.50;94.10
40960;DHT22;27842;52.272;8.052;2023-07-29T14:47:49;23.50;93.80
40960;DHT22;27842;52.272;8.052;2023-07-29T14:50:15;23.40;93.90
40960;DHT22;27842;52.272;8.052;2023-07-29T14:52:40;23.40;94.10
40960;DHT22;27842;52.272;8.052;2023-07-29T14:55:06;23.40;94.20
40960;DHT22;27842;52.272;8.052;2023-07-29T14:57:31;23.30;94.30
40960;DHT22;27842;52.272;8.052;2023-07-29T14:59:57;23.30;94.50
40960;DHT22;27842;52.272;8.052;2023-07-29T15:02:22;23.40;94.70
40960;DHT22;27842;52.272;8.052;2023-07-29T15:04:48;23.60;94.80
40960;DHT22;27842;52.272;8.052;2023-07-29T15:07:14;23.70;94.80
40960;DHT22;27842;52.272;8.052;2023-07-29T15:09:39;23.90;94.60
40960;DHT22;27842;52.272;8.052;2023-07-29T15:12:05;24.10;94.50
40960;DHT22;27842;52.272;8.052;2023-07-29T15:14:31;24.20;94.40
40960;DHT22;27842;52.272;8.052;2023-07-29T15:16:56;24.20;94.50
40960;DHT22;27842;52.272;8.052;2023-07-29T15:19:22;24.10;94.50
40960;DHT22;27842;52.272;8.052;2023-07-29T15:21:47;24.10;94.60
40960;DHT22;27842;52.272;8.052;2023-07-29T15:24:13;24.00;94.60
40960;DHT22;27842;52.272;8.052;2023-07-29T15:26:39;23.90;95.10
40960;DHT22;27842;52.272;8.052;2023-07-29T15:29:05;23.80;94.90
40960;DHT22;27842;52.272;8.052;2023-07-29T15:31:33;23.80;94.70
40960;DHT22;27842;52.272;8.052;2023-07-29T15:33:58;23.80;95.30
40960;DHT22;27842;52.272;8.052;2023-07-29T15:36:24;23.80;95.00